createdAt,value
2022-10-30T00:01:20.640Z,19.07
2022-10-30T00:03:48.218Z,17.97
2022-10-30T00:08:42.860Z,19.60
2022-10-30T00:11:13.696Z,19.03
2022-10-30T00:13:44.798Z,18.90
2022-10-30T00:16:12.182Z,17.57
2022-10-30T00:18:42.276Z,18.97
2022-10-30T00:21:15.483Z,19.00
2022-10-30T00:23:48.487Z,17.60
2022-10-30T00:26:16.732Z,18.73
2022-10-30T00:28:45.127Z,18.37
2022-10-30T00:31:12.562Z,18.43
2022-10-30T00:33:40.064Z,19.27
2022-10-30T00:36:07.763Z,18.90
2022-10-30T00:38:35.268Z,17.53
2022-10-30T00:41:02.678Z,16.53
2022-10-30T00:43:41.255Z,18.07
2022-10-30T00:46:31.494Z,18.63
2022-10-30T00:49:14.255Z,17.87
2022-10-30T00:51:47.400Z,18.03
2022-10-30T00:54:18.285Z,17.47
2022-10-30T00:56:48.097Z,18.83
2022-10-30T00:59:28.844Z,19.27
2022-10-30T01:01:56.837Z,19.50
2022-10-30T01:04:29.047Z,19.70
2022-10-30T01:06:58.819Z,20.57
2022-10-30T01:09:26.787Z,19.40
2022-10-30T01:11:54.332Z,20.33
2022-10-30T01:14:22.147Z,21.03
2022-10-30T01:17:35.221Z,21.60
2022-10-30T01:20:12.669Z,21.23
2022-10-30T01:22:58.525Z,21.13
2022-10-30T01:26:02.905Z,20.50
2022-10-30T01:29:17.595Z,19.43
2022-10-30T01:32:04.622Z,21.00
2022-10-30T01:35:21.119Z,20.33
2022-10-30T01:38:17.868Z,21.37
2022-10-30T01:40:45.869Z,20.87
2022-10-30T01:43:13.300Z,20.37
2022-10-30T01:46:04.958Z,20.73
2022-10-30T01:48:44.342Z,22.07
2022-10-30T01:51:52.735Z,21.77
2022-10-30T01:54:26.680Z,20.73
2022-10-30T01:57:04.090Z,21.20
2022-10-30T01:59:52.464Z,20.00
2022-10-30T02:02:22.935Z,20.73
2022-10-30T02:04:51.749Z,21.37
2022-10-30T02:07:19.442Z,21.83
2022-10-30T02:09:52.782Z,22.30
2022-10-30T02:12:21.937Z,21.77
2022-10-30T02:14:56.117Z,21.33
2022-10-30T02:17:24.068Z,20.53
2022-10-30T02:19:51.354Z,22.53
2022-10-30T02:22:18.968Z,21.47
2022-10-30T02:24:46.619Z,23.00
2022-10-30T02:27:14.079Z,22.03
2022-10-30T02:29:41.416Z,21.00
2022-10-30T02:32:08.813Z,22.10
2022-10-30T02:34:36.893Z,23.37
2022-10-30T02:37:04.253Z,22.90
2022-10-30T02:39:31.756Z,22.70
2022-10-30T02:42:01.959Z,24.20
2022-10-30T02:44:29.361Z,22.03
2022-10-30T02:46:56.851Z,22.23
2022-10-30T02:49:24.578Z,21.53
2022-10-30T02:51:52.461Z,22.57
2022-10-30T02:54:19.912Z,22.43
2022-10-30T02:56:48.833Z,22.50
2022-10-30T02:59:16.260Z,23.13
2022-10-30T03:01:44.363Z,23.00
2022-10-30T03:04:11.749Z,22.37
2022-10-30T03:06:39.170Z,22.53
2022-10-30T03:09:06.712Z,22.53
2022-10-30T03:11:34.916Z,22.20
2022-10-30T03:14:02.239Z,22.13
2022-10-30T03:16:31.045Z,22.90
2022-10-30T03:18:58.768Z,22.53
2022-10-30T03:21:28.860Z,22.37
2022-10-30T03:23:56.661Z,22.47
2022-10-30T03:26:24.182Z,22.17
2022-10-30T03:28:55.219Z,22.60
2022-10-30T03:31:23.069Z,23.50
2022-10-30T03:34:08.119Z,23.57
2022-10-30T03:36:35.493Z,24.50
2022-10-30T03:39:03.218Z,23.10
2022-10-30T03:41:32.417Z,23.87
2022-10-30T03:43:59.799Z,24.07
2022-10-30T03:46:27.147Z,24.73
2022-10-30T03:49:02.371Z,24.60
2022-10-30T03:51:29.696Z,26.50
2022-10-30T03:53:57.041Z,24.87
2022-10-30T03:56:24.630Z,25.00
2022-10-30T03:58:55.550Z,26.63
2022-10-30T04:01:23.901Z,24.53
2022-10-30T04:03:56.232Z,25.70
2022-10-30T04:06:25.474Z,23.87
2022-10-30T04:08:55.738Z,25.00
2022-10-30T04:11:24.285Z,24.27
2022-10-30T04:13:51.724Z,25.47
2022-10-30T04:16:19.087Z,25.73
2022-10-30T04:18:46.564Z,25.33
2022-10-30T04:21:13.939Z,25.07
2022-10-30T04:23:41.504Z,24.77
2022-10-30T04:26:09.980Z,22.83
2022-10-30T04:28:40.264Z,24.60
2022-10-30T04:31:08.330Z,23.50
2022-10-30T04:33:35.657Z,24.57
2022-10-30T04:36:03.175Z,25.90
2022-10-30T04:38:33.172Z,25.17
2022-10-30T04:41:01.414Z,26.20
2022-10-30T04:43:44.207Z,25.60
2022-10-30T04:46:11.605Z,23.20
2022-10-30T04:48:39.233Z,24.63
2022-10-30T04:51:07.330Z,22.57
2022-10-30T04:53:34.695Z,24.30
2022-10-30T04:56:07.446Z,23.67
2022-10-30T04:58:35.066Z,24.37
2022-10-30T05:01:07.360Z,23.30
2022-10-30T05:03:36.429Z,23.97
2022-10-30T05:06:30.531Z,21.47
2022-10-30T05:08:58.767Z,21.50
2022-10-30T05:11:35.443Z,23.03
2022-10-30T05:14:02.901Z,22.90
2022-10-30T05:16:30.409Z,23.77
2022-10-30T05:18:59.848Z,22.57
2022-10-30T05:21:27.225Z,23.07
2022-10-30T05:23:54.890Z,22.10
2022-10-30T05:26:23.687Z,21.63
2022-10-30T05:28:52.630Z,23.00
2022-10-30T05:31:20.013Z,22.07
2022-10-30T05:34:07.417Z,22.40
2022-10-30T05:36:36.218Z,22.83
2022-10-30T05:39:04.539Z,23.10
2022-10-30T05:41:36.074Z,22.90
2022-10-30T05:44:04.310Z,22.83
2022-10-30T05:46:33.303Z,24.57
2022-10-30T05:49:13.244Z,22.63
2022-10-30T05:51:40.828Z,22.00
2022-10-30T05:54:11.291Z,22.93
2022-10-30T05:56:47.783Z,22.07
2022-10-30T05:59:15.366Z,21.87
2022-10-30T06:04:13.314Z,22.60
2022-10-30T06:06:41.367Z,22.80
2022-10-30T06:09:08.750Z,23.23
2022-10-30T06:11:54.832Z,24.40
2022-10-30T06:14:31.892Z,25.63
2022-10-30T06:16:59.267Z,25.13
2022-10-30T06:19:32.368Z,24.00
2022-10-30T06:22:22.759Z,24.63
2022-10-30T06:24:57.516Z,25.03
2022-10-30T06:27:39.756Z,22.83
2022-10-30T06:30:07.877Z,23.03
2022-10-30T06:32:35.384Z,22.70
2022-10-30T06:35:03.818Z,22.60
2022-10-30T06:37:31.850Z,20.70
2022-10-30T06:40:04.440Z,21.30
2022-10-30T06:42:52.310Z,20.57
2022-10-30T06:45:45.721Z,20.57
2022-10-30T06:48:13.370Z,20.40
2022-10-30T06:50:44.940Z,20.13
2022-10-30T06:53:12.292Z,19.27
2022-10-30T06:55:39.860Z,19.97
2022-10-30T06:58:39.189Z,19.23
2022-10-30T07:01:12.396Z,17.30
2022-10-30T07:04:00.426Z,17.07
2022-10-30T07:06:27.755Z,18.43
2022-10-30T07:08:55.136Z,17.73
2022-10-30T07:11:22.598Z,17.37
2022-10-30T07:14:28.240Z,16.80
2022-10-30T07:17:11.788Z,17.47
2022-10-30T07:19:40.785Z,17.20
2022-10-30T07:22:08.308Z,17.20
2022-10-30T07:24:38.222Z,18.07
2022-10-30T07:27:08.094Z,18.30
2022-10-30T07:29:38.761Z,19.87
2022-10-30T07:32:24.686Z,20.50
2022-10-30T07:35:14.408Z,21.27
2022-10-30T07:37:54.037Z,21.07
2022-10-30T07:40:26.927Z,20.27
2022-10-30T07:43:06.367Z,20.80
2022-10-30T07:45:45.329Z,19.33
2022-10-30T07:48:30.879Z,18.70
2022-10-30T07:51:18.524Z,18.07
2022-10-30T07:53:45.845Z,18.03
2022-10-30T07:56:13.403Z,17.77
2022-10-30T07:58:52.658Z,16.53
2022-10-30T08:01:32.415Z,16.97
2022-10-30T08:04:14.102Z,17.53
2022-10-30T08:06:42.429Z,17.50
2022-10-30T08:09:10.351Z,17.93
2022-10-30T08:11:37.712Z,17.10
2022-10-30T08:14:05.740Z,16.73
2022-10-30T08:16:33.334Z,16.67
2022-10-30T08:19:00.780Z,16.30
2022-10-30T08:21:28.603Z,16.43
2022-10-30T08:23:59.488Z,16.23
2022-10-30T08:26:30.436Z,17.70
2022-10-30T08:28:58.754Z,16.10
2022-10-30T08:31:28.719Z,16.20
2022-10-30T08:34:16.756Z,16.53
2022-10-30T08:36:52.324Z,16.70
2022-10-30T08:39:20.400Z,16.33
2022-10-30T08:42:00.945Z,15.60
2022-10-30T08:44:39.305Z,15.97
2022-10-30T08:47:25.275Z,15.07
2022-10-30T08:49:53.914Z,16.20
2022-10-30T08:52:25.692Z,16.03
2022-10-30T08:54:57.088Z,16.03
2022-10-30T08:57:28.115Z,13.83
2022-10-30T08:59:57.646Z,14.23
2022-10-30T09:02:48.190Z,12.73
2022-10-30T09:05:38.733Z,13.07
2022-10-30T09:08:27.213Z,13.07
2022-10-30T09:11:07.371Z,12.77
2022-10-30T09:13:37.670Z,12.97
2022-10-30T09:16:07.131Z,12.97
2022-10-30T09:18:37.042Z,13.57
2022-10-30T09:21:05.562Z,12.00
2022-10-30T09:23:43.956Z,11.37
2022-10-30T09:26:30.211Z,11.60
2022-10-30T09:29:24.204Z,11.60
2022-10-30T09:32:04.812Z,11.27
2022-10-30T09:34:33.533Z,11.67
2022-10-30T09:37:06.577Z,12.57
2022-10-30T09:39:37.316Z,11.27
2022-10-30T09:42:18.825Z,11.67
2022-10-30T09:45:35.502Z,11.17
2022-10-30T09:48:31.505Z,11.47
2022-10-30T09:51:41.613Z,11.37
2022-10-30T09:54:36.972Z,11.30
2022-10-30T09:57:19.684Z,10.63
2022-10-30T10:00:08.869Z,10.47
2022-10-30T10:03:04.459Z,9.80
2022-10-30T10:06:00.858Z,10.07
2022-10-30T10:09:09.213Z,9.40
2022-10-30T10:13:00.212Z,10.30
2022-10-30T10:15:52.214Z,9.77
2022-10-30T10:21:10.179Z,9.13
2022-10-30T10:23:53.556Z,9.57
2022-10-30T10:26:27.799Z,9.57
2022-10-30T10:29:39.255Z,10.07
2022-10-30T10:32:34.561Z,9.63
2022-10-30T10:35:37.870Z,9.10
2022-10-30T10:38:17.151Z,9.30
2022-10-30T10:41:35.786Z,8.83
2022-10-30T10:44:34.562Z,9.27
2022-10-30T10:47:32.387Z,9.10
2022-10-30T10:50:02.647Z,8.67
2022-10-30T10:52:50.655Z,9.20
2022-10-30T10:55:27.145Z,8.77
2022-10-30T10:57:59.883Z,9.07
2022-10-30T11:00:29.608Z,10.47
2022-10-30T11:05:57.850Z,9.17
2022-10-30T11:08:30.362Z,9.13
2022-10-30T11:11:07.803Z,9.43
2022-10-30T11:13:41.913Z,9.30
2022-10-30T11:16:40.357Z,8.77
2022-10-30T11:19:09.522Z,9.93
2022-10-30T11:21:45.170Z,9.23
2022-10-30T11:24:32.973Z,9.60
2022-10-30T11:27:24.222Z,8.03
2022-10-30T11:30:19.584Z,7.90
2022-10-30T11:32:49.752Z,9.03
2022-10-30T11:35:20.341Z,8.13
2022-10-30T11:37:51.527Z,8.73
2022-10-30T11:40:22.815Z,8.83
2022-10-30T11:43:03.837Z,7.97
2022-10-30T11:45:43.533Z,8.57
2022-10-30T11:48:30.114Z,8.50
2022-10-30T11:51:01.565Z,8.83
2022-10-30T11:53:43.605Z,9.60
2022-10-30T11:56:22.326Z,8.57
2022-10-30T11:59:02.683Z,8.93
2022-10-30T12:01:36.861Z,8.43
2022-10-30T12:04:16.587Z,9.03
2022-10-30T12:06:43.943Z,9.20
2022-10-30T12:09:22.149Z,9.77
2022-10-30T12:11:50.471Z,9.03
2022-10-30T12:14:22.448Z,8.47
2022-10-30T12:16:56.413Z,8.47
2022-10-30T12:19:25.675Z,8.73
2022-10-30T12:21:58.935Z,9.00
2022-10-30T12:24:37.166Z,8.27
2022-10-30T12:27:14.007Z,8.67
2022-10-30T12:30:14.527Z,9.50
2022-10-30T12:33:04.815Z,8.60
2022-10-30T12:35:44.694Z,8.23
2022-10-30T12:38:28.076Z,8.63
2022-10-30T12:41:35.271Z,9.00
2022-10-30T12:44:19.024Z,8.30
2022-10-30T12:47:25.301Z,8.37
2022-10-30T12:49:59.071Z,8.50
2022-10-30T12:53:06.554Z,8.63
2022-10-30T12:55:41.030Z,7.90
2022-10-30T12:58:22.270Z,7.83
2022-10-30T13:01:08.797Z,7.53
2022-10-30T13:04:06.415Z,8.33
2022-10-30T13:06:42.707Z,7.70
2022-10-30T13:09:20.870Z,7.27
2022-10-30T13:11:59.554Z,7.60
2022-10-30T13:14:40.699Z,7.37
2022-10-30T13:17:13.228Z,8.20
2022-10-30T13:19:45.206Z,8.47
2022-10-30T13:22:36.923Z,8.13
2022-10-30T13:25:14.291Z,7.97
2022-10-30T13:28:02.294Z,7.40
2022-10-30T13:30:41.633Z,7.30
2022-10-30T13:33:29.537Z,7.20
2022-10-30T13:36:05.808Z,7.00
2022-10-30T13:38:58.298Z,7.53
2022-10-30T13:41:45.265Z,6.63
2022-10-30T13:45:00.557Z,6.87
2022-10-30T13:47:30.921Z,6.03
2022-10-30T13:50:33.467Z,6.77
2022-10-30T13:53:03.425Z,6.63
2022-10-30T13:55:34.648Z,5.87
2022-10-30T13:58:18.069Z,6.83
2022-10-30T14:01:06.759Z,6.30
2022-10-30T14:04:28.612Z,6.30
2022-10-30T14:07:42.274Z,5.80
2022-10-30T14:10:43.295Z,6.80
2022-10-30T14:13:34.322Z,7.23
2022-10-30T14:16:07.613Z,8.90
2022-10-30T14:19:11.972Z,6.73
2022-10-30T14:21:58.368Z,6.83
2022-10-30T14:24:34.206Z,6.93
2022-10-30T14:27:04.747Z,7.33
2022-10-30T14:29:35.751Z,7.10
2022-10-30T14:32:23.381Z,6.57
2022-10-30T14:34:50.751Z,7.87
2022-10-30T14:37:38.390Z,7.00
2022-10-30T14:40:48.733Z,8.43
2022-10-30T14:44:18.296Z,7.73
2022-10-30T14:47:01.890Z,8.23
2022-10-30T14:49:46.240Z,7.60
2022-10-30T14:52:28.135Z,7.33
2022-10-30T14:55:20.524Z,7.77
2022-10-30T14:58:02.977Z,8.80
2022-10-30T15:00:33.245Z,7.47
2022-10-30T15:03:45.445Z,7.00
2022-10-30T15:06:21.648Z,7.50
2022-10-30T15:09:04.402Z,7.47
2022-10-30T15:11:46.898Z,8.80
2022-10-30T15:14:40.459Z,7.20
2022-10-30T15:17:40.400Z,8.20
2022-10-30T15:20:32.536Z,7.43
2022-10-30T15:23:14.265Z,8.10
2022-10-30T15:25:50.641Z,8.30
2022-10-30T15:28:33.345Z,7.30
2022-10-30T15:31:05.923Z,6.93
2022-10-30T15:33:38.129Z,8.30
2022-10-30T15:36:06.472Z,9.73
2022-10-30T15:38:33.910Z,13.17
2022-10-30T15:41:05.209Z,8.93
2022-10-30T15:43:38.913Z,14.47
2022-10-30T15:46:18.675Z,9.30
2022-10-30T15:48:47.911Z,8.53
2022-10-30T15:51:23.092Z,9.33
2022-10-30T15:53:57.260Z,8.93
2022-10-30T15:56:41.185Z,9.90
2022-10-30T15:59:23.426Z,10.53
2022-10-30T16:01:54.700Z,9.50
2022-10-30T16:04:31.925Z,9.60
2022-10-30T16:07:28.579Z,11.07
2022-10-30T16:10:06.031Z,9.73
2022-10-30T16:12:35.430Z,9.93
2022-10-30T16:15:31.739Z,9.10
2022-10-30T16:18:06.065Z,10.43
2022-10-30T16:20:35.770Z,10.20
2022-10-30T16:23:05.557Z,10.37
2022-10-30T16:25:37.317Z,13.03
2022-10-30T16:28:05.917Z,10.47
2022-10-30T16:30:34.896Z,9.63
2022-10-30T16:33:03.867Z,11.73
2022-10-30T16:35:31.632Z,12.90
2022-10-30T16:38:02.668Z,12.37
2022-10-30T16:40:31.204Z,11.43
2022-10-30T16:43:01.656Z,11.37
2022-10-30T16:45:32.265Z,12.33
2022-10-30T16:48:09.229Z,12.93
2022-10-30T16:50:38.535Z,14.20
2022-10-30T16:53:22.919Z,12.67
2022-10-30T16:55:51.877Z,13.57
2022-10-30T16:58:21.025Z,13.70
2022-10-30T17:01:03.019Z,12.17
2022-10-30T17:03:38.518Z,12.70
2022-10-30T17:06:24.918Z,14.17
2022-10-30T17:08:54.709Z,14.00
2022-10-30T17:11:41.431Z,13.90
2022-10-30T17:14:20.809Z,13.27
2022-10-30T17:16:55.317Z,12.83
2022-10-30T17:19:31.808Z,13.20
2022-10-30T17:22:25.866Z,13.07
2022-10-30T17:25:25.388Z,14.83
2022-10-30T17:27:52.915Z,12.87
2022-10-30T17:30:31.939Z,15.27
2022-10-30T17:32:59.553Z,15.67
2022-10-30T17:35:27.681Z,19.10
2022-10-30T17:37:58.405Z,19.67
2022-10-30T17:40:29.025Z,21.40
2022-10-30T17:42:56.385Z,22.33
2022-10-30T17:45:23.697Z,24.03
2022-10-30T17:47:51.214Z,22.47
2022-10-30T17:50:18.502Z,21.07
2022-10-30T17:52:45.908Z,19.63
2022-10-30T17:55:29.281Z,19.07
2022-10-30T17:57:56.589Z,18.77
2022-10-30T18:00:24.033Z,18.07
2022-10-30T18:02:51.774Z,16.40
2022-10-30T18:05:23.079Z,17.40
2022-10-30T18:10:17.935Z,16.83
2022-10-30T18:12:45.470Z,18.50
2022-10-30T18:15:29.960Z,24.63
2022-10-30T18:17:57.771Z,22.57
2022-10-30T18:20:25.834Z,19.27
2022-10-30T18:22:53.784Z,24.03
2022-10-30T18:25:30.883Z,32.40
2022-10-30T18:27:58.251Z,23.90
2022-10-30T18:30:26.034Z,23.33
2022-10-30T18:32:53.369Z,25.10
2022-10-30T18:35:35.411Z,23.07
2022-10-30T18:38:03.430Z,37.80
2022-10-30T18:40:31.782Z,24.93
2022-10-30T18:42:59.792Z,17.13
2022-10-30T18:45:36.129Z,21.13
2022-10-30T18:48:04.665Z,22.90
2022-10-30T18:50:32.479Z,18.93
2022-10-30T18:53:01.697Z,27.90
2022-10-30T18:55:39.094Z,28.50
2022-10-30T18:58:07.908Z,27.77
2022-10-30T19:00:58.239Z,27.23
2022-10-30T19:03:28.402Z,21.03
2022-10-30T19:05:55.903Z,18.57
2022-10-30T19:08:23.167Z,19.77
2022-10-30T19:10:50.483Z,23.43
2022-10-30T19:13:22.574Z,23.83
2022-10-30T19:15:58.977Z,24.10
2022-10-30T19:18:28.991Z,22.70
2022-10-30T19:21:05.881Z,24.77
2022-10-30T19:23:35.566Z,22.17
2022-10-30T19:26:03.100Z,20.27
2022-10-30T19:28:30.952Z,22.43
2022-10-30T19:31:02.097Z,21.73
2022-10-30T19:33:29.654Z,21.03
2022-10-30T19:36:04.790Z,23.57
2022-10-30T19:38:33.059Z,22.33
2022-10-30T19:41:00.877Z,21.10
2022-10-30T19:43:28.228Z,22.17
2022-10-30T19:45:57.143Z,20.83
2022-10-30T19:48:55.493Z,22.47
2022-10-30T19:51:13.063Z,20.10
2022-10-30T19:53:40.819Z,21.30
2022-10-30T19:56:11.484Z,20.27
2022-10-30T19:58:38.950Z,24.83
2022-10-30T20:01:07.089Z,21.60
2022-10-30T20:03:37.493Z,23.60
2022-10-30T20:06:05.133Z,25.17
2022-10-30T20:08:32.615Z,25.53
2022-10-30T20:11:00.928Z,24.63
2022-10-30T20:13:30.073Z,22.40
2022-10-30T20:16:00.497Z,22.73
2022-10-30T20:18:31.617Z,21.73
2022-10-30T20:21:08.586Z,23.23
2022-10-30T20:23:36.274Z,21.70
2022-10-30T20:26:07.654Z,22.27
2022-10-30T20:28:39.279Z,25.33
2022-10-30T20:31:08.375Z,31.67
2022-10-30T20:33:35.742Z,30.47
2022-10-30T20:36:03.691Z,25.00
2022-10-30T20:38:34.534Z,25.03
2022-10-30T20:41:05.260Z,25.43
2022-10-30T20:43:37.163Z,25.70
2022-10-30T20:46:09.379Z,24.13
2022-10-30T20:48:38.061Z,24.70
2022-10-30T20:51:06.881Z,24.30
2022-10-30T20:53:34.868Z,24.13
2022-10-30T20:56:03.844Z,25.10
2022-10-30T20:58:31.750Z,27.03
2022-10-30T21:00:59.482Z,27.23
2022-10-30T21:03:27.853Z,25.67
2022-10-30T21:05:58.922Z,26.73
2022-10-30T21:08:31.668Z,25.40
2022-10-30T21:11:04.668Z,24.40
2022-10-30T21:13:34.757Z,25.47
2022-10-30T21:16:06.254Z,26.10
2022-10-30T21:18:34.035Z,28.00
2022-10-30T21:21:08.129Z,26.27
2022-10-30T21:23:35.715Z,26.80
2022-10-30T21:26:07.399Z,28.17
2022-10-30T21:28:34.957Z,26.53
2022-10-30T21:31:04.618Z,24.37
2022-10-30T21:33:34.400Z,25.00
2022-10-30T21:36:13.728Z,28.13
2022-10-30T21:38:42.496Z,26.33
2022-10-30T21:41:12.815Z,30.73
2022-10-30T21:43:40.291Z,26.37
2022-10-30T21:46:09.955Z,26.57
2022-10-30T21:48:37.906Z,27.37
2022-10-30T21:51:14.507Z,26.47
2022-10-30T21:53:42.892Z,26.70
2022-10-30T21:56:18.317Z,26.23
2022-10-30T21:58:47.077Z,26.67
2022-10-30T22:01:30.043Z,25.70
2022-10-30T22:04:01.069Z,29.97
2022-10-30T22:06:29.269Z,24.77
2022-10-30T22:08:57.840Z,24.30
2022-10-30T22:11:27.841Z,23.33
2022-10-30T22:13:57.957Z,24.10
2022-10-30T22:16:28.386Z,26.27
2022-10-30T22:18:57.541Z,24.67
2022-10-30T22:21:25.782Z,26.70
2022-10-30T22:23:53.351Z,25.93
2022-10-30T22:26:23.109Z,26.60
2022-10-30T22:29:00.667Z,29.90
2022-10-30T22:31:30.039Z,28.60
2022-10-30T22:34:00.573Z,26.70
2022-10-30T22:36:33.297Z,30.23
2022-10-30T22:39:07.852Z,26.27
2022-10-30T22:41:38.153Z,25.60
2022-10-30T22:44:09.006Z,25.10
2022-10-30T22:46:37.217Z,25.70
2022-10-30T22:49:04.736Z,25.60
2022-10-30T22:51:34.042Z,24.70
2022-10-30T22:54:05.140Z,28.57
2022-10-30T22:56:35.412Z,24.63
2022-10-30T22:59:10.420Z,24.80
2022-10-30T23:01:38.840Z,24.17
2022-10-30T23:04:09.422Z,23.30
2022-10-30T23:06:37.442Z,22.43
2022-10-30T23:09:10.261Z,23.47
2022-10-30T23:11:37.967Z,22.80
2022-10-30T23:14:05.452Z,22.23
2022-10-30T23:16:33.136Z,22.97
2022-10-30T23:19:01.345Z,22.73
2022-10-30T23:21:31.264Z,23.40
2022-10-30T23:23:59.218Z,24.70
2022-10-30T23:26:33.706Z,24.40
2022-10-30T23:29:02.378Z,25.50
2022-10-30T23:31:34.499Z,24.57
2022-10-30T23:34:06.419Z,23.53
2022-10-30T23:36:34.164Z,23.20
2022-10-30T23:39:06.372Z,23.07
2022-10-30T23:41:37.083Z,22.70
2022-10-30T23:44:08.004Z,22.63
2022-10-30T23:46:36.027Z,18.70
2022-10-30T23:49:05.000Z,20.17
2022-10-30T23:51:33.331Z,20.03
2022-10-30T23:54:00.856Z,20.97
2022-10-30T23:56:30.912Z,20.20
2022-10-30T23:58:58.905Z,20.93
